createdAt,value
2018-07-30T00:01:03.105Z,3.33
2018-07-30T00:03:31.912Z,3.00
2018-07-30T00:06:00.757Z,3.50
2018-07-30T00:08:29.650Z,3.60
2018-07-30T00:10:58.513Z,3.60
2018-07-30T00:13:27.350Z,3.50
2018-07-30T00:15:56.217Z,3.40
2018-07-30T00:18:25.118Z,3.10
2018-07-30T00:20:53.930Z,3.30
2018-07-30T00:23:22.811Z,3.70
2018-07-30T00:25:51.784Z,2.90
2018-07-30T00:28:20.622Z,3.40
2018-07-30T00:30:49.466Z,3.23
2018-07-30T00:33:18.434Z,3.07
2018-07-30T00:35:47.266Z,3.13
2018-07-30T00:38:16.107Z,3.37
2018-07-30T00:40:44.940Z,3.57
2018-07-30T00:43:13.777Z,3.50
2018-07-30T00:45:42.612Z,3.30
2018-07-30T00:48:14.512Z,3.40
2018-07-30T00:50:43.369Z,3.13
2018-07-30T00:53:12.219Z,3.30
2018-07-30T00:55:41.044Z,3.43
2018-07-30T00:58:09.945Z,3.40
2018-07-30T01:00:38.809Z,3.13
2018-07-30T01:03:07.631Z,3.23
2018-07-30T01:05:36.505Z,3.50
2018-07-30T01:08:05.379Z,3.77
2018-07-30T01:10:34.213Z,3.23
2018-07-30T01:13:03.070Z,3.23
2018-07-30T01:15:31.926Z,3.60
2018-07-30T01:18:00.786Z,4.03
2018-07-30T01:20:29.625Z,3.90
2018-07-30T01:22:58.463Z,3.50
2018-07-30T01:25:27.308Z,3.67
2018-07-30T01:27:56.143Z,3.43
2018-07-30T01:30:24.996Z,3.80
2018-07-30T01:33:29.896Z,3.47
2018-07-30T01:35:58.760Z,3.60
2018-07-30T01:38:27.623Z,3.83
2018-07-30T01:40:56.441Z,3.93
2018-07-30T01:43:25.300Z,3.30
2018-07-30T01:45:54.203Z,3.73
2018-07-30T01:48:22.987Z,3.60
2018-07-30T01:50:51.807Z,3.47
2018-07-30T01:53:20.686Z,3.57
2018-07-30T01:55:49.666Z,3.33
2018-07-30T01:58:18.532Z,3.50
2018-07-30T02:00:47.356Z,3.27
2018-07-30T02:03:16.192Z,3.60
2018-07-30T02:05:45.069Z,3.47
2018-07-30T02:08:13.901Z,3.20
2018-07-30T02:10:42.770Z,3.33
2018-07-30T02:13:11.642Z,2.97
2018-07-30T02:15:40.487Z,3.37
2018-07-30T02:18:09.361Z,3.70
2018-07-30T02:20:38.240Z,3.73
2018-07-30T02:23:07.087Z,3.80
2018-07-30T02:25:35.948Z,3.67
2018-07-30T02:28:04.796Z,3.80
2018-07-30T02:30:33.638Z,3.70
2018-07-30T02:33:02.502Z,3.77
2018-07-30T02:35:31.358Z,4.00
2018-07-30T02:38:00.188Z,3.47
2018-07-30T02:40:34.933Z,3.40
2018-07-30T02:43:03.773Z,3.40
2018-07-30T02:45:32.608Z,3.67
2018-07-30T02:48:01.462Z,4.00
2018-07-30T02:50:30.286Z,4.07
2018-07-30T02:52:59.152Z,3.80
2018-07-30T02:55:27.975Z,3.97
2018-07-30T02:57:56.810Z,3.40
2018-07-30T03:00:25.663Z,3.87
2018-07-30T03:02:54.516Z,4.07
2018-07-30T03:05:23.344Z,3.67
2018-07-30T03:07:52.205Z,3.70
2018-07-30T03:10:21.030Z,3.63
2018-07-30T03:12:49.877Z,3.90
2018-07-30T03:15:18.730Z,3.80
2018-07-30T03:17:47.619Z,3.50
2018-07-30T03:20:16.439Z,3.90
2018-07-30T03:22:45.290Z,3.90
2018-07-30T03:25:14.219Z,3.73
2018-07-30T03:27:43.040Z,4.00
2018-07-30T03:30:12.063Z,4.10
2018-07-30T03:32:41.073Z,3.80
2018-07-30T03:35:09.918Z,3.73
2018-07-30T03:37:38.777Z,4.13
2018-07-30T03:40:07.664Z,3.90
2018-07-30T03:42:36.507Z,3.70
2018-07-30T03:45:06.904Z,3.43
2018-07-30T03:47:35.748Z,3.97
2018-07-30T03:50:04.761Z,3.57
2018-07-30T03:52:33.607Z,3.50
2018-07-30T03:55:02.433Z,4.10
2018-07-30T03:57:31.271Z,3.67
2018-07-30T04:00:00.172Z,3.67
2018-07-30T04:02:28.955Z,3.97
2018-07-30T04:04:57.861Z,3.50
2018-07-30T04:07:26.843Z,4.17
2018-07-30T04:09:55.722Z,3.37
2018-07-30T04:12:24.588Z,3.83
2018-07-30T04:14:53.425Z,3.43
2018-07-30T04:17:22.295Z,4.03
2018-07-30T04:19:51.133Z,3.80
2018-07-30T04:22:19.995Z,4.00
2018-07-30T04:24:48.836Z,3.97
2018-07-30T04:27:17.668Z,3.73
2018-07-30T04:29:46.663Z,4.23
2018-07-30T04:32:15.498Z,4.07
2018-07-30T04:34:44.337Z,3.60
2018-07-30T04:37:13.208Z,3.80
2018-07-30T04:39:42.042Z,3.63
2018-07-30T04:42:10.863Z,4.00
2018-07-30T04:44:39.696Z,4.00
2018-07-30T04:47:08.548Z,3.60
2018-07-30T04:49:37.389Z,3.40
2018-07-30T04:52:09.233Z,4.20
2018-07-30T04:54:38.074Z,4.27
2018-07-30T04:57:06.908Z,4.13
2018-07-30T04:59:35.788Z,3.83
2018-07-30T05:02:04.600Z,4.27
2018-07-30T05:04:33.467Z,4.30
2018-07-30T05:07:02.360Z,4.50
2018-07-30T05:09:31.249Z,3.97
2018-07-30T05:12:00.135Z,4.13
2018-07-30T05:14:32.177Z,4.43
2018-07-30T05:17:01.021Z,4.90
2018-07-30T05:19:29.951Z,4.03
2018-07-30T05:21:58.743Z,4.00
2018-07-30T05:24:27.581Z,4.77
2018-07-30T05:26:56.457Z,4.53
2018-07-30T05:29:25.462Z,5.00
2018-07-30T05:31:54.258Z,5.10
2018-07-30T05:34:23.131Z,5.42
2018-07-30T05:36:52.138Z,5.13
2018-07-30T05:39:20.977Z,4.90
2018-07-30T05:41:49.806Z,4.77
2018-07-30T05:44:18.663Z,4.30
2018-07-30T05:46:47.521Z,4.73
2018-07-30T05:49:16.466Z,4.40
2018-07-30T05:51:45.281Z,4.30
2018-07-30T05:54:14.275Z,4.40
2018-07-30T05:56:43.119Z,4.63
2018-07-30T05:59:11.973Z,4.30
2018-07-30T06:01:40.839Z,4.70
2018-07-30T06:04:09.657Z,4.23
2018-07-30T06:06:38.506Z,4.37
2018-07-30T06:09:08.668Z,4.50
2018-07-30T06:11:37.789Z,4.43
2018-07-30T06:14:06.658Z,4.80
2018-07-30T06:16:35.490Z,4.50
2018-07-30T06:19:04.336Z,4.47
2018-07-30T06:21:36.268Z,4.60
2018-07-30T06:24:05.104Z,4.62
2018-07-30T06:26:33.967Z,4.22
2018-07-30T06:29:02.774Z,4.35
2018-07-30T06:31:31.610Z,3.98
2018-07-30T06:34:00.440Z,4.40
2018-07-30T06:36:29.296Z,3.83
2018-07-30T06:38:58.125Z,4.10
2018-07-30T06:41:26.971Z,4.15
2018-07-30T06:43:56.897Z,3.67
2018-07-30T06:46:25.791Z,3.98
2018-07-30T06:48:54.628Z,3.87
2018-07-30T06:51:23.471Z,3.20
2018-07-30T06:53:52.279Z,3.45
2018-07-30T06:56:21.141Z,3.47
2018-07-30T06:58:49.958Z,3.08
2018-07-30T07:01:18.813Z,3.05
2018-07-30T07:03:47.653Z,2.85
2018-07-30T07:06:22.669Z,3.00
2018-07-30T07:08:51.524Z,2.80
2018-07-30T07:11:20.406Z,2.50
2018-07-30T07:13:49.252Z,2.85
2018-07-30T07:16:18.081Z,2.83
2018-07-30T07:18:47.008Z,2.58
2018-07-30T07:21:15.910Z,2.50
2018-07-30T07:23:44.702Z,3.00
2018-07-30T07:26:13.515Z,2.80
2018-07-30T07:28:43.588Z,3.30
2018-07-30T07:31:12.420Z,3.08
2018-07-30T07:33:41.293Z,3.27
2018-07-30T07:36:10.134Z,2.90
2018-07-30T07:38:38.979Z,3.80
2018-07-30T07:41:08.614Z,3.12
2018-07-30T07:43:37.530Z,3.80
2018-07-30T07:46:06.351Z,3.47
2018-07-30T07:48:35.227Z,3.90
2018-07-30T07:51:04.658Z,3.67
2018-07-30T07:53:33.691Z,3.70
2018-07-30T07:56:02.517Z,3.87
2018-07-30T07:58:31.356Z,3.80
2018-07-30T08:01:00.197Z,3.58
2018-07-30T08:03:29.002Z,3.87
2018-07-30T08:05:57.891Z,3.83
2018-07-30T08:08:26.706Z,3.37
2018-07-30T08:10:55.602Z,3.77
2018-07-30T08:13:24.440Z,3.50
2018-07-30T08:15:53.268Z,3.60
2018-07-30T08:18:22.115Z,3.62
2018-07-30T08:20:50.941Z,3.67
2018-07-30T08:23:19.816Z,3.50
2018-07-30T08:25:48.641Z,3.60
2018-07-30T08:28:17.474Z,3.80
2018-07-30T08:30:46.301Z,3.15
2018-07-30T08:33:15.174Z,3.33
2018-07-30T08:35:43.993Z,3.35
2018-07-30T08:38:12.860Z,3.65
2018-07-30T08:40:41.741Z,3.77
2018-07-30T08:43:10.586Z,3.37
2018-07-30T08:45:39.421Z,3.30
2018-07-30T08:48:08.255Z,3.50
2018-07-30T08:50:37.142Z,3.42
2018-07-30T08:53:05.964Z,3.02
2018-07-30T08:55:41.496Z,3.37
2018-07-30T08:58:10.329Z,3.72
2018-07-30T09:00:39.192Z,3.42
2018-07-30T09:03:07.999Z,3.17
2018-07-30T09:05:36.838Z,3.40
2018-07-30T09:08:06.042Z,3.20
2018-07-30T09:10:34.903Z,3.72
2018-07-30T09:13:03.720Z,3.20
2018-07-30T09:15:32.555Z,3.20
2018-07-30T09:18:01.445Z,3.58
2018-07-30T09:20:30.297Z,3.10
2018-07-30T09:22:59.121Z,3.22
2018-07-30T09:25:27.945Z,4.08
2018-07-30T09:27:56.831Z,3.37
2018-07-30T09:30:25.686Z,3.22
2018-07-30T09:32:54.625Z,3.22
2018-07-30T09:35:23.387Z,3.55
2018-07-30T09:37:52.265Z,3.33
2018-07-30T09:40:21.118Z,3.22
2018-07-30T09:42:49.959Z,3.62
2018-07-30T09:45:18.827Z,3.42
2018-07-30T09:47:47.671Z,3.35
2018-07-30T09:50:16.544Z,3.60
2018-07-30T09:52:45.406Z,3.70
2018-07-30T09:55:14.254Z,3.40
2018-07-30T09:57:43.225Z,3.60
2018-07-30T10:00:12.073Z,3.67
2018-07-30T10:02:40.904Z,3.72
2018-07-30T10:05:09.752Z,3.83
2018-07-30T10:07:38.599Z,3.42
2018-07-30T10:10:07.426Z,4.20
2018-07-30T10:12:36.280Z,3.90
2018-07-30T10:15:05.295Z,3.87
2018-07-30T10:17:34.273Z,4.12
2018-07-30T10:20:02.948Z,4.30
2018-07-30T10:22:31.778Z,3.85
2018-07-30T10:25:00.807Z,3.55
2018-07-30T10:27:29.657Z,3.80
2018-07-30T10:29:58.506Z,3.42
2018-07-30T10:32:27.326Z,3.47
2018-07-30T10:34:56.267Z,3.17
2018-07-30T10:37:25.114Z,3.92
2018-07-30T10:39:54.006Z,3.72
2018-07-30T10:42:22.820Z,3.95
2018-07-30T10:44:51.648Z,3.52
2018-07-30T10:47:20.646Z,3.50
2018-07-30T10:49:49.489Z,3.70
2018-07-30T10:52:18.301Z,3.70
2018-07-30T10:54:47.149Z,3.60
2018-07-30T10:57:16.005Z,3.12
2018-07-30T10:59:44.937Z,4.05
2018-07-30T11:02:13.756Z,3.15
2018-07-30T11:04:43.319Z,3.58
2018-07-30T11:07:12.395Z,3.30
2018-07-30T11:09:41.310Z,3.40
2018-07-30T11:12:10.075Z,2.95
2018-07-30T11:14:38.948Z,3.10
2018-07-30T11:17:07.762Z,2.80
2018-07-30T11:19:36.655Z,2.60
2018-07-30T11:22:05.469Z,2.90
2018-07-30T11:24:34.939Z,2.50
2018-07-30T11:27:03.804Z,2.50
2018-07-30T11:29:34.206Z,2.15
2018-07-30T11:32:03.047Z,2.25
2018-07-30T11:34:31.940Z,2.47
2018-07-30T11:37:00.777Z,2.58
2018-07-30T11:39:29.604Z,2.50
2018-07-30T11:41:58.444Z,2.30
2018-07-30T11:44:27.277Z,2.30
2018-07-30T11:46:56.112Z,2.25
2018-07-30T11:49:24.964Z,2.25
2018-07-30T11:51:53.932Z,2.33
2018-07-30T11:54:22.904Z,2.10
2018-07-30T11:56:51.634Z,2.35
2018-07-30T11:59:20.450Z,2.35
2018-07-30T12:01:49.351Z,2.12
2018-07-30T12:04:18.101Z,2.00
2018-07-30T12:06:46.934Z,2.20
2018-07-30T12:09:15.799Z,2.17
2018-07-30T12:11:44.620Z,2.20
2018-07-30T12:14:13.454Z,2.30
2018-07-30T12:16:42.448Z,2.27
2018-07-30T12:19:11.227Z,2.12
2018-07-30T12:21:40.159Z,2.37
2018-07-30T12:24:09.066Z,2.08
2018-07-30T12:26:37.910Z,2.15
2018-07-30T12:29:06.741Z,2.08
2018-07-30T12:31:35.601Z,2.00
2018-07-30T12:34:04.410Z,1.92
2018-07-30T12:36:39.500Z,2.50
2018-07-30T12:39:10.318Z,2.02
2018-07-30T12:41:39.275Z,2.05
2018-07-30T12:44:08.090Z,2.33
2018-07-30T12:46:36.954Z,2.40
2018-07-30T12:49:06.151Z,2.58
2018-07-30T12:51:35.091Z,2.00
2018-07-30T12:54:03.915Z,2.17
2018-07-30T12:56:32.779Z,2.10
2018-07-30T12:59:01.627Z,2.45
2018-07-30T13:01:30.486Z,2.10
2018-07-30T13:03:59.356Z,2.60
2018-07-30T13:06:28.176Z,2.25
2018-07-30T13:08:57.004Z,2.30
2018-07-30T13:11:25.841Z,2.40
2018-07-30T13:13:54.667Z,2.67
2018-07-30T13:16:23.499Z,2.40
2018-07-30T13:18:52.372Z,2.20
2018-07-30T13:21:21.207Z,2.37
2018-07-30T13:23:50.004Z,2.60
2018-07-30T13:26:18.871Z,2.25
2018-07-30T13:28:47.705Z,2.35
2018-07-30T13:31:16.529Z,2.08
2018-07-30T13:33:45.915Z,2.30
2018-07-30T13:36:15.190Z,2.17
2018-07-30T13:38:44.021Z,2.10
2018-07-30T13:41:12.926Z,2.20
2018-07-30T13:43:41.796Z,2.37
2018-07-30T13:46:10.605Z,2.05
2018-07-30T13:48:39.539Z,2.10
2018-07-30T13:51:08.356Z,2.17
2018-07-30T13:53:37.186Z,2.33
2018-07-30T13:56:06.419Z,2.05
2018-07-30T13:58:35.303Z,2.08
2018-07-30T14:01:04.303Z,2.50
2018-07-30T14:03:33.237Z,2.40
2018-07-30T14:06:01.984Z,2.10
2018-07-30T14:08:30.822Z,2.12
2018-07-30T14:10:59.651Z,2.10
2018-07-30T14:13:28.490Z,2.17
2018-07-30T14:15:57.329Z,2.27
2018-07-30T14:18:26.185Z,1.98
2018-07-30T14:20:55.216Z,2.40
2018-07-30T14:23:24.042Z,2.27
2018-07-30T14:25:53.072Z,2.22
2018-07-30T14:28:21.939Z,2.27
2018-07-30T14:30:50.821Z,2.58
2018-07-30T14:33:19.639Z,1.95
2018-07-30T14:35:48.496Z,1.92
2018-07-30T14:38:17.333Z,1.90
2018-07-30T14:40:46.156Z,2.00
2018-07-30T14:43:14.994Z,2.08
2018-07-30T14:45:43.846Z,1.75
2018-07-30T14:48:21.248Z,2.22
2018-07-30T14:50:50.104Z,1.90
2018-07-30T14:53:18.961Z,2.12
2018-07-30T14:55:47.817Z,2.10
2018-07-30T14:58:16.662Z,1.80
2018-07-30T15:00:45.482Z,1.90
2018-07-30T15:03:14.337Z,2.00
2018-07-30T15:05:43.164Z,1.60
2018-07-30T15:08:12.005Z,1.82
2018-07-30T15:10:42.618Z,1.90
2018-07-30T15:13:11.459Z,1.77
2018-07-30T15:15:40.345Z,1.87
2018-07-30T15:18:09.171Z,1.42
2018-07-30T15:20:38.037Z,1.70
2018-07-30T15:23:06.859Z,1.82
2018-07-30T15:25:35.769Z,1.98
2018-07-30T15:28:04.820Z,1.77
2018-07-30T15:30:33.662Z,2.02
2018-07-30T15:33:03.690Z,1.67
2018-07-30T15:35:32.523Z,1.70
2018-07-30T15:38:01.353Z,1.62
2018-07-30T15:40:30.215Z,1.77
2018-07-30T15:42:59.013Z,1.60
2018-07-30T15:45:27.853Z,1.85
2018-07-30T15:47:56.728Z,1.62
2018-07-30T15:50:25.564Z,1.80
2018-07-30T15:52:54.424Z,1.98
2018-07-30T15:55:26.147Z,1.92
2018-07-30T15:57:54.988Z,1.92
2018-07-30T16:00:23.831Z,2.10
2018-07-30T16:02:52.674Z,2.52
2018-07-30T16:05:21.525Z,1.92
2018-07-30T16:07:50.334Z,2.10
2018-07-30T16:10:19.163Z,1.95
2018-07-30T16:12:47.993Z,1.90
2018-07-30T16:15:16.838Z,2.17
2018-07-30T16:17:48.872Z,2.40
2018-07-30T16:20:17.755Z,2.20
2018-07-30T16:22:46.581Z,2.52
2018-07-30T16:25:15.426Z,2.30
2018-07-30T16:27:44.255Z,2.20
2018-07-30T16:30:13.080Z,2.10
2018-07-30T16:32:41.900Z,2.12
2018-07-30T16:35:10.731Z,2.27
2018-07-30T16:37:39.555Z,2.30
2018-07-30T16:40:11.177Z,2.22
2018-07-30T16:42:40.007Z,2.00
2018-07-30T16:45:09.356Z,2.10
2018-07-30T16:47:38.439Z,2.15
2018-07-30T16:50:08.195Z,2.27
2018-07-30T16:52:37.035Z,2.22
2018-07-30T16:55:06.327Z,2.22
2018-07-30T16:57:35.155Z,2.20
2018-07-30T17:00:06.707Z,2.25
2018-07-30T17:02:35.603Z,1.90
2018-07-30T17:05:05.068Z,2.40
2018-07-30T17:07:33.915Z,3.25
2018-07-30T17:10:02.776Z,3.05
2018-07-30T17:12:31.596Z,2.10
2018-07-30T17:15:00.455Z,2.22
2018-07-30T17:17:29.509Z,2.10
2018-07-30T17:19:58.436Z,2.12
2018-07-30T17:22:27.349Z,2.20
2018-07-30T17:24:56.186Z,2.10
2018-07-30T17:27:25.061Z,2.20
2018-07-30T17:29:53.911Z,2.02
2018-07-30T17:32:22.718Z,2.40
2018-07-30T17:34:51.523Z,2.12
2018-07-30T17:37:20.383Z,2.55
2018-07-30T17:39:49.211Z,2.47
2018-07-30T17:42:18.066Z,2.20
2018-07-30T17:44:48.096Z,2.20
2018-07-30T17:47:16.934Z,2.02
2018-07-30T17:49:45.787Z,2.40
2018-07-30T17:52:14.622Z,2.35
2018-07-30T17:54:43.484Z,2.30
2018-07-30T17:57:12.338Z,2.30
2018-07-30T17:59:41.226Z,1.90
2018-07-30T18:02:10.238Z,2.35
2018-07-30T18:04:39.044Z,1.90
2018-07-30T18:07:11.255Z,2.33
2018-07-30T18:09:40.079Z,2.40
2018-07-30T18:12:08.938Z,1.90
2018-07-30T18:14:37.783Z,2.20
2018-07-30T18:17:06.701Z,2.20
2018-07-30T18:19:35.565Z,2.08
2018-07-30T18:22:04.418Z,2.27
2018-07-30T18:24:33.270Z,2.22
2018-07-30T18:27:02.239Z,2.10
2018-07-30T18:29:31.125Z,2.35
2018-07-30T18:31:59.938Z,2.40
2018-07-30T18:34:28.754Z,2.20
2018-07-30T18:36:57.599Z,2.50
2018-07-30T18:39:26.444Z,2.40
2018-07-30T18:41:55.288Z,2.30
2018-07-30T18:44:24.109Z,2.08
2018-07-30T18:46:52.948Z,2.27
2018-07-30T18:49:21.798Z,2.72
2018-07-30T18:52:26.240Z,2.20
2018-07-30T18:54:55.113Z,2.35
2018-07-30T18:57:23.988Z,2.50
2018-07-30T18:59:52.853Z,2.22
2018-07-30T19:02:21.689Z,2.15
2018-07-30T19:04:50.715Z,2.50
2018-07-30T19:07:19.473Z,2.20
2018-07-30T19:09:48.299Z,2.50
2018-07-30T19:12:17.148Z,2.15
2018-07-30T19:14:46.167Z,2.47
2018-07-30T19:17:15.045Z,2.10
2018-07-30T19:19:43.920Z,2.15
2018-07-30T19:22:12.861Z,2.52
2018-07-30T19:24:41.789Z,2.15
2018-07-30T19:27:10.648Z,2.80
2018-07-30T19:29:39.789Z,2.27
2018-07-30T19:32:08.678Z,2.60
2018-07-30T19:34:38.163Z,2.58
2018-07-30T19:37:07.395Z,2.47
2018-07-30T19:39:36.287Z,2.65
2018-07-30T19:42:05.291Z,2.55
2018-07-30T19:44:34.199Z,2.45
2018-07-30T19:47:02.992Z,2.80
2018-07-30T19:49:31.844Z,2.70
2018-07-30T19:52:00.703Z,2.98
2018-07-30T19:54:29.570Z,2.47
2018-07-30T19:56:58.421Z,2.60
2018-07-30T19:59:27.296Z,2.70
2018-07-30T20:01:56.121Z,2.77
2018-07-30T20:04:24.971Z,2.47
2018-07-30T20:06:53.884Z,2.70
2018-07-30T20:09:22.687Z,2.52
2018-07-30T20:11:51.537Z,2.42
2018-07-30T20:14:20.368Z,2.83
2018-07-30T20:16:49.250Z,2.70
2018-07-30T20:19:21.256Z,3.00
2018-07-30T20:21:50.123Z,2.40
2018-07-30T20:24:18.938Z,2.52
2018-07-30T20:26:47.796Z,2.42
2018-07-30T20:29:16.649Z,2.30
2018-07-30T20:31:45.477Z,2.70
2018-07-30T20:34:14.314Z,2.75
2018-07-30T20:36:43.184Z,2.95
2018-07-30T20:39:12.044Z,3.33
2018-07-30T20:41:41.987Z,3.12
2018-07-30T20:44:10.866Z,3.50
2018-07-30T20:46:39.736Z,3.05
2018-07-30T20:49:08.600Z,2.95
2018-07-30T20:51:37.439Z,2.85
2018-07-30T20:54:06.280Z,2.90
2018-07-30T20:56:35.111Z,2.75
2018-07-30T20:59:04.030Z,2.80
2018-07-30T21:01:32.843Z,2.87
2018-07-30T21:04:01.763Z,2.77
2018-07-30T21:06:30.610Z,2.25
2018-07-30T21:08:59.439Z,2.50
2018-07-30T21:11:28.279Z,2.58
2018-07-30T21:13:57.114Z,3.08
2018-07-30T21:16:25.924Z,2.67
2018-07-30T21:18:54.766Z,2.37
2018-07-30T21:21:23.584Z,3.30
2018-07-30T21:23:52.458Z,2.72
2018-07-30T21:26:21.311Z,2.50
2018-07-30T21:28:50.213Z,2.60
2018-07-30T21:31:19.107Z,2.42
2018-07-30T21:33:47.953Z,2.35
2018-07-30T21:36:16.800Z,2.15
2018-07-30T21:38:45.627Z,2.55
2018-07-30T21:41:14.540Z,2.47
2018-07-30T21:43:43.330Z,2.50
2018-07-30T21:46:12.146Z,2.10
2018-07-30T21:48:40.998Z,2.53
2018-07-30T21:51:09.870Z,2.57
2018-07-30T21:53:38.777Z,2.37
2018-07-30T21:56:07.818Z,2.20
2018-07-30T21:58:36.653Z,2.30
2018-07-30T22:01:05.532Z,2.30
2018-07-30T22:03:34.385Z,2.35
2018-07-30T22:06:03.291Z,2.42
2018-07-30T22:08:32.127Z,2.00
2018-07-30T22:11:01.025Z,2.37
2018-07-30T22:13:30.025Z,2.00
2018-07-30T22:15:58.859Z,2.12
2018-07-30T22:18:27.692Z,2.40
2018-07-30T22:20:56.521Z,2.35
2018-07-30T22:23:25.362Z,2.30
2018-07-30T22:25:54.218Z,2.17
2018-07-30T22:28:23.050Z,2.40
2018-07-30T22:30:51.986Z,2.20
2018-07-30T22:33:20.939Z,2.27
2018-07-30T22:35:49.770Z,2.00
2018-07-30T22:38:18.607Z,2.07
2018-07-30T22:40:47.484Z,1.97
2018-07-30T22:43:16.328Z,2.52
2018-07-30T22:45:45.168Z,2.30
2018-07-30T22:48:14.073Z,2.30
2018-07-30T22:50:42.959Z,2.37
2018-07-30T22:53:11.828Z,2.10
2018-07-30T22:55:40.794Z,2.30
2018-07-30T22:58:09.634Z,1.83
2018-07-30T23:00:38.676Z,2.07
2018-07-30T23:03:07.511Z,2.10
2018-07-30T23:05:36.342Z,2.58
2018-07-30T23:08:05.199Z,2.23
2018-07-30T23:10:34.068Z,2.15
2018-07-30T23:13:02.895Z,2.20
2018-07-30T23:15:31.756Z,2.00
2018-07-30T23:18:03.670Z,2.50
2018-07-30T23:20:32.496Z,2.07
2018-07-30T23:23:01.332Z,2.33
2018-07-30T23:25:30.181Z,2.17
2018-07-30T23:27:58.983Z,2.10
2018-07-30T23:30:27.843Z,2.40
2018-07-30T23:32:56.719Z,2.20
2018-07-30T23:35:25.547Z,1.97
2018-07-30T23:37:54.354Z,2.13
2018-07-30T23:40:26.326Z,2.20
2018-07-30T23:42:55.153Z,2.30
2018-07-30T23:45:23.991Z,2.00
2018-07-30T23:47:52.807Z,2.20
2018-07-30T23:50:21.655Z,2.20
2018-07-30T23:52:50.465Z,2.00
2018-07-30T23:55:19.370Z,2.20
2018-07-30T23:57:48.125Z,2.20
